Tamsweg, Austria
Current Conditions -  °F | °C
As of 4:20 AM on Monday 24 Nov 2014 (Local Time) from LOWK Reporting Station
Broken Clouds Broken Clouds  
Wind Chill: 37°   Ceiling: 400
Heat Index: 37°   Visibility: 6mi
Dew Point: 37°   Wind: 1mph
Humidity: 100%   Direction: NA
Pressure: 30.33"   Gusts: NA
Location:  47.14°N, 13.8°E
Report Text: LOWK 240220Z AUTO VRB01KT 9999 FEW003 BKN004 03/03 Q1027
Loading
Personal Weather Stations






























Interactive Weather Map New forecast layout! Learn more

10-Day Weather Forecast

Advertisements
Track Severe Weather on mobile